sensor_id;sensor_type;location;lat;lon;timestamp;P1;durP1;ratioP1;P2;durP2;ratioP2
17382;SDS011;8809;51.892;8.384;2023-05-07T00:00:07;4.75;;;3.58;;
17382;SDS011;8809;51.892;8.384;2023-05-07T00:02:36;3.83;;;3.42;;
17382;SDS011;8809;51.892;8.384;2023-05-07T00:05:04;4.40;;;3.38;;
17382;SDS011;8809;51.892;8.384;2023-05-07T00:07:32;4.28;;;3.50;;
17382;SDS011;8809;51.892;8.384;2023-05-07T00:09:59;4.95;;;4.45;;
17382;SDS011;8809;51.892;8.384;2023-05-07T00:12:31;6.43;;;4.70;;
17382;SDS011;8809;51.892;8.384;2023-05-07T00:14:59;6.57;;;4.68;;
17382;SDS011;8809;51.892;8.384;2023-05-07T00:17:28;5.90;;;4.95;;
17382;SDS011;8809;51.892;8.384;2023-05-07T00:19:55;6.35;;;5.55;;
17382;SDS011;8809;51.892;8.384;2023-05-07T00:22:23;5.65;;;4.60;;
17382;SDS011;8809;51.892;8.384;2023-05-07T00:24:50;7.10;;;5.78;;
17382;SDS011;8809;51.892;8.384;2023-05-07T00:27:17;7.18;;;5.05;;
17382;SDS011;8809;51.892;8.384;2023-05-07T00:29:45;5.35;;;4.80;;
17382;SDS011;8809;51.892;8.384;2023-05-07T00:32:12;6.03;;;4.90;;
17382;SDS011;8809;51.892;8.384;2023-05-07T00:34:40;5.75;;;4.93;;
17382;SDS011;8809;51.892;8.384;2023-05-07T00:37:08;5.32;;;4.82;;
17382;SDS011;8809;51.892;8.384;2023-05-07T00:39:35;5.63;;;5.07;;
17382;SDS011;8809;51.892;8.384;2023-05-07T00:42:03;6.55;;;5.43;;
17382;SDS011;8809;51.892;8.384;2023-05-07T00:44:31;5.85;;;5.10;;
17382;SDS011;8809;51.892;8.384;2023-05-07T00:46:58;5.68;;;5.07;;
17382;SDS011;8809;51.892;8.384;2023-05-07T00:49:30;6.18;;;5.40;;
17382;SDS011;8809;51.892;8.384;2023-05-07T00:52:07;6.70;;;5.50;;
17382;SDS011;8809;51.892;8.384;2023-05-07T00:54:35;8.00;;;5.70;;
17382;SDS011;8809;51.892;8.384;2023-05-07T00:57:03;8.07;;;6.28;;
17382;SDS011;8809;51.892;8.384;2023-05-07T00:59:32;7.75;;;6.32;;
17382;SDS011;8809;51.892;8.384;2023-05-07T01:02:00;8.55;;;5.85;;
17382;SDS011;8809;51.892;8.384;2023-05-07T01:04:27;7.75;;;6.07;;
17382;SDS011;8809;51.892;8.384;2023-05-07T01:06:55;7.32;;;6.10;;
17382;SDS011;8809;51.892;8.384;2023-05-07T01:09:25;7.13;;;5.72;;
17382;SDS011;8809;51.892;8.384;2023-05-07T01:11:54;8.73;;;6.05;;
17382;SDS011;8809;51.892;8.384;2023-05-07T01:14:23;6.72;;;5.78;;
17382;SDS011;8809;51.892;8.384;2023-05-07T01:16:51;8.57;;;6.43;;
17382;SDS011;8809;51.892;8.384;2023-05-07T01:19:20;7.07;;;5.82;;
17382;SDS011;8809;51.892;8.384;2023-05-07T01:21:48;7.43;;;6.28;;
17382;SDS011;8809;51.892;8.384;2023-05-07T01:24:17;7.65;;;6.18;;
17382;SDS011;8809;51.892;8.384;2023-05-07T01:26:45;8.25;;;6.55;;
17382;SDS011;8809;51.892;8.384;2023-05-07T01:29:12;8.45;;;6.20;;
17382;SDS011;8809;51.892;8.384;2023-05-07T01:31:39;7.53;;;6.40;;
17382;SDS011;8809;51.892;8.384;2023-05-07T01:34:09;7.28;;;6.25;;
17382;SDS011;8809;51.892;8.384;2023-05-07T01:36:39;9.82;;;7.10;;
17382;SDS011;8809;51.892;8.384;2023-05-07T01:39:09;7.18;;;6.25;;
17382;SDS011;8809;51.892;8.384;2023-05-07T01:41:38;7.20;;;6.25;;
17382;SDS011;8809;51.892;8.384;2023-05-07T01:44:06;7.72;;;6.65;;
17382;SDS011;8809;51.892;8.384;2023-05-07T01:46:34;8.07;;;6.63;;
17382;SDS011;8809;51.892;8.384;2023-05-07T01:49:02;7.43;;;6.43;;
17382;SDS011;8809;51.892;8.384;2023-05-07T01:51:29;7.60;;;6.22;;
17382;SDS011;8809;51.892;8.384;2023-05-07T01:53:57;6.95;;;6.25;;
17382;SDS011;8809;51.892;8.384;2023-05-07T01:56:26;9.52;;;7.90;;
17382;SDS011;8809;51.892;8.384;2023-05-07T01:58:54;7.15;;;6.35;;
17382;SDS011;8809;51.892;8.384;2023-05-07T02:01:21;9.00;;;6.75;;
17382;SDS011;8809;51.892;8.384;2023-05-07T02:03:48;7.65;;;6.72;;
17382;SDS011;8809;51.892;8.384;2023-05-07T02:06:15;9.70;;;6.72;;
17382;SDS011;8809;51.892;8.384;2023-05-07T02:08:43;6.88;;;6.10;;
17382;SDS011;8809;51.892;8.384;2023-05-07T02:11:10;9.82;;;7.18;;
17382;SDS011;8809;51.892;8.384;2023-05-07T02:13:37;9.02;;;6.80;;
17382;SDS011;8809;51.892;8.384;2023-05-07T02:16:06;10.63;;;7.05;;
17382;SDS011;8809;51.892;8.384;2023-05-07T02:18:33;9.52;;;7.05;;
17382;SDS011;8809;51.892;8.384;2023-05-07T02:21:01;7.65;;;6.85;;
17382;SDS011;8809;51.892;8.384;2023-05-07T02:23:28;7.57;;;6.63;;
17382;SDS011;8809;51.892;8.384;2023-05-07T02:25:55;10.63;;;8.18;;
17382;SDS011;8809;51.892;8.384;2023-05-07T02:28:22;10.18;;;7.10;;
17382;SDS011;8809;51.892;8.384;2023-05-07T02:30:49;8.65;;;7.38;;
17382;SDS011;8809;51.892;8.384;2023-05-07T02:33:18;9.63;;;7.95;;
17382;SDS011;8809;51.892;8.384;2023-05-07T02:35:46;8.05;;;6.85;;
17382;SDS011;8809;51.892;8.384;2023-05-07T02:38:13;8.48;;;7.15;;
17382;SDS011;8809;51.892;8.384;2023-05-07T02:40:40;11.88;;;8.50;;
17382;SDS011;8809;51.892;8.384;2023-05-07T02:43:07;9.40;;;7.28;;
17382;SDS011;8809;51.892;8.384;2023-05-07T02:45:34;10.70;;;8.25;;
17382;SDS011;8809;51.892;8.384;2023-05-07T02:48:03;8.82;;;7.32;;
17382;SDS011;8809;51.892;8.384;2023-05-07T02:50:32;9.27;;;7.93;;
17382;SDS011;8809;51.892;8.384;2023-05-07T02:53:00;7.95;;;7.15;;
17382;SDS011;8809;51.892;8.384;2023-05-07T02:55:27;8.95;;;7.47;;
17382;SDS011;8809;51.892;8.384;2023-05-07T02:57:54;8.48;;;7.57;;
17382;SDS011;8809;51.892;8.384;2023-05-07T03:00:28;9.02;;;7.40;;
17382;SDS011;8809;51.892;8.384;2023-05-07T03:03:02;9.48;;;7.82;;
17382;SDS011;8809;51.892;8.384;2023-05-07T03:05:30;8.77;;;6.90;;
17382;SDS011;8809;51.892;8.384;2023-05-07T03:08:06;9.07;;;7.65;;
17382;SDS011;8809;51.892;8.384;2023-05-07T03:10:34;8.48;;;7.20;;
17382;SDS011;8809;51.892;8.384;2023-05-07T03:13:02;8.43;;;7.25;;
17382;SDS011;8809;51.892;8.384;2023-05-07T03:15:30;9.77;;;7.65;;
17382;SDS011;8809;51.892;8.384;2023-05-07T03:17:58;8.77;;;7.43;;
17382;SDS011;8809;51.892;8.384;2023-05-07T03:20:25;9.95;;;8.30;;
17382;SDS011;8809;51.892;8.384;2023-05-07T03:22:52;8.77;;;7.85;;
17382;SDS011;8809;51.892;8.384;2023-05-07T03:25:20;9.45;;;8.18;;
17382;SDS011;8809;51.892;8.384;2023-05-07T03:27:48;10.45;;;8.07;;
17382;SDS011;8809;51.892;8.384;2023-05-07T03:30:15;8.43;;;7.38;;
17382;SDS011;8809;51.892;8.384;2023-05-07T03:32:43;9.10;;;7.47;;
17382;SDS011;8809;51.892;8.384;2023-05-07T03:35:10;8.90;;;7.93;;
17382;SDS011;8809;51.892;8.384;2023-05-07T03:37:37;10.90;;;8.50;;
17382;SDS011;8809;51.892;8.384;2023-05-07T03:40:08;9.10;;;8.05;;
17382;SDS011;8809;51.892;8.384;2023-05-07T03:42:38;10.55;;;8.82;;
17382;SDS011;8809;51.892;8.384;2023-05-07T03:45:06;9.82;;;8.52;;
17382;SDS011;8809;51.892;8.384;2023-05-07T03:47:34;10.52;;;8.20;;
17382;SDS011;8809;51.892;8.384;2023-05-07T03:50:04;8.90;;;7.82;;
17382;SDS011;8809;51.892;8.384;2023-05-07T03:52:36;9.65;;;8.07;;
17382;SDS011;8809;51.892;8.384;2023-05-07T03:55:04;9.70;;;7.80;;
17382;SDS011;8809;51.892;8.384;2023-05-07T03:57:31;9.80;;;7.88;;
17382;SDS011;8809;51.892;8.384;2023-05-07T04:00:00;9.40;;;7.53;;
17382;SDS011;8809;51.892;8.384;2023-05-07T04:02:36;9.25;;;8.07;;
17382;SDS011;8809;51.892;8.384;2023-05-07T04:05:03;9.90;;;8.57;;
17382;SDS011;8809;51.892;8.384;2023-05-07T04:07:30;9.40;;;7.93;;
17382;SDS011;8809;51.892;8.384;2023-05-07T04:09:58;11.23;;;8.80;;
17382;SDS011;8809;51.892;8.384;2023-05-07T04:12:27;11.32;;;8.95;;
17382;SDS011;8809;51.892;8.384;2023-05-07T04:14:54;11.30;;;8.30;;
17382;SDS011;8809;51.892;8.384;2023-05-07T04:17:23;11.38;;;9.00;;
17382;SDS011;8809;51.892;8.384;2023-05-07T04:19:51;11.40;;;9.32;;
17382;SDS011;8809;51.892;8.384;2023-05-07T04:22:19;12.43;;;10.50;;
17382;SDS011;8809;51.892;8.384;2023-05-07T04:24:46;14.55;;;10.18;;
17382;SDS011;8809;51.892;8.384;2023-05-07T04:27:14;12.88;;;10.25;;
17382;SDS011;8809;51.892;8.384;2023-05-07T04:29:42;12.73;;;9.32;;
17382;SDS011;8809;51.892;8.384;2023-05-07T04:32:12;11.30;;;9.00;;
17382;SDS011;8809;51.892;8.384;2023-05-07T04:34:41;12.32;;;10.30;;
17382;SDS011;8809;51.892;8.384;2023-05-07T04:37:08;13.90;;;10.50;;
17382;SDS011;8809;51.892;8.384;2023-05-07T04:39:36;13.93;;;11.18;;
17382;SDS011;8809;51.892;8.384;2023-05-07T04:42:03;12.68;;;10.48;;
17382;SDS011;8809;51.892;8.384;2023-05-07T04:44:33;12.20;;;9.75;;
17382;SDS011;8809;51.892;8.384;2023-05-07T04:47:00;13.50;;;10.25;;
17382;SDS011;8809;51.892;8.384;2023-05-07T04:49:28;12.23;;;9.95;;
17382;SDS011;8809;51.892;8.384;2023-05-07T04:51:57;11.80;;;9.75;;
17382;SDS011;8809;51.892;8.384;2023-05-07T04:54:24;12.25;;;10.93;;
17382;SDS011;8809;51.892;8.384;2023-05-07T04:56:52;14.38;;;11.73;;
17382;SDS011;8809;51.892;8.384;2023-05-07T04:59:20;14.25;;;10.75;;
17382;SDS011;8809;51.892;8.384;2023-05-07T05:01:47;13.02;;;10.23;;
17382;SDS011;8809;51.892;8.384;2023-05-07T05:04:14;14.65;;;10.75;;
17382;SDS011;8809;51.892;8.384;2023-05-07T05:06:41;15.70;;;10.43;;
17382;SDS011;8809;51.892;8.384;2023-05-07T05:09:10;14.52;;;11.02;;
17382;SDS011;8809;51.892;8.384;2023-05-07T05:11:38;14.48;;;11.23;;
17382;SDS011;8809;51.892;8.384;2023-05-07T05:14:05;13.68;;;10.45;;
17382;SDS011;8809;51.892;8.384;2023-05-07T05:16:33;14.98;;;10.73;;
17382;SDS011;8809;51.892;8.384;2023-05-07T05:19:01;15.02;;;11.25;;
17382;SDS011;8809;51.892;8.384;2023-05-07T05:21:29;13.93;;;11.35;;
17382;SDS011;8809;51.892;8.384;2023-05-07T05:23:56;13.38;;;10.38;;
17382;SDS011;8809;51.892;8.384;2023-05-07T05:26:24;14.45;;;10.35;;
17382;SDS011;8809;51.892;8.384;2023-05-07T05:28:51;13.63;;;10.30;;
17382;SDS011;8809;51.892;8.384;2023-05-07T05:31:19;12.75;;;10.05;;
17382;SDS011;8809;51.892;8.384;2023-05-07T05:33:47;15.70;;;11.55;;
17382;SDS011;8809;51.892;8.384;2023-05-07T05:36:14;13.55;;;10.40;;
17382;SDS011;8809;51.892;8.384;2023-05-07T05:38:42;14.40;;;11.55;;
17382;SDS011;8809;51.892;8.384;2023-05-07T05:41:10;18.10;;;13.32;;
17382;SDS011;8809;51.892;8.384;2023-05-07T05:43:39;18.27;;;13.27;;
17382;SDS011;8809;51.892;8.384;2023-05-07T05:46:06;19.73;;;14.15;;
17382;SDS011;8809;51.892;8.384;2023-05-07T05:48:34;20.25;;;15.38;;
17382;SDS011;8809;51.892;8.384;2023-05-07T05:51:02;18.45;;;13.63;;
17382;SDS011;8809;51.892;8.384;2023-05-07T05:53:29;18.08;;;12.77;;
17382;SDS011;8809;51.892;8.384;2023-05-07T05:55:56;19.40;;;14.13;;
17382;SDS011;8809;51.892;8.384;2023-05-07T05:58:24;18.33;;;13.98;;
17382;SDS011;8809;51.892;8.384;2023-05-07T06:00:53;23.60;;;14.25;;
17382;SDS011;8809;51.892;8.384;2023-05-07T06:03:20;18.48;;;14.25;;
17382;SDS011;8809;51.892;8.384;2023-05-07T06:05:47;17.92;;;13.25;;
17382;SDS011;8809;51.892;8.384;2023-05-07T06:08:14;17.25;;;13.25;;
17382;SDS011;8809;51.892;8.384;2023-05-07T06:10:45;16.65;;;12.40;;
17382;SDS011;8809;51.892;8.384;2023-05-07T06:13:14;20.13;;;14.95;;
17382;SDS011;8809;51.892;8.384;2023-05-07T06:15:42;16.88;;;12.82;;
17382;SDS011;8809;51.892;8.384;2023-05-07T06:18:10;20.35;;;14.50;;
17382;SDS011;8809;51.892;8.384;2023-05-07T06:20:37;19.85;;;13.65;;
17382;SDS011;8809;51.892;8.384;2023-05-07T06:23:04;19.67;;;14.13;;
17382;SDS011;8809;51.892;8.384;2023-05-07T06:25:32;19.42;;;14.18;;
17382;SDS011;8809;51.892;8.384;2023-05-07T06:28:00;17.10;;;12.45;;
17382;SDS011;8809;51.892;8.384;2023-05-07T06:30:27;17.63;;;12.68;;
17382;SDS011;8809;51.892;8.384;2023-05-07T06:32:55;16.15;;;11.38;;
17382;SDS011;8809;51.892;8.384;2023-05-07T06:35:24;15.50;;;11.57;;
17382;SDS011;8809;51.892;8.384;2023-05-07T06:37:51;16.23;;;12.27;;
17382;SDS011;8809;51.892;8.384;2023-05-07T06:40:20;16.38;;;12.63;;
17382;SDS011;8809;51.892;8.384;2023-05-07T06:42:47;15.02;;;11.27;;
17382;SDS011;8809;51.892;8.384;2023-05-07T06:45:14;15.68;;;11.55;;
17382;SDS011;8809;51.892;8.384;2023-05-07T06:47:42;14.98;;;10.73;;
17382;SDS011;8809;51.892;8.384;2023-05-07T06:50:10;16.45;;;11.73;;
17382;SDS011;8809;51.892;8.384;2023-05-07T06:52:40;14.18;;;10.55;;
17382;SDS011;8809;51.892;8.384;2023-05-07T06:55:08;16.40;;;11.70;;
17382;SDS011;8809;51.892;8.384;2023-05-07T06:57:36;17.30;;;13.15;;
17382;SDS011;8809;51.892;8.384;2023-05-07T07:00:05;14.15;;;10.85;;
17382;SDS011;8809;51.892;8.384;2023-05-07T07:02:34;17.20;;;11.27;;
17382;SDS011;8809;51.892;8.384;2023-05-07T07:05:01;15.13;;;10.55;;
17382;SDS011;8809;51.892;8.384;2023-05-07T07:07:29;14.85;;;11.10;;
17382;SDS011;8809;51.892;8.384;2023-05-07T07:09:58;16.05;;;11.40;;
17382;SDS011;8809;51.892;8.384;2023-05-07T07:12:25;16.98;;;12.25;;
17382;SDS011;8809;51.892;8.384;2023-05-07T07:14:52;15.63;;;12.27;;
17382;SDS011;8809;51.892;8.384;2023-05-07T07:17:19;16.38;;;12.55;;
17382;SDS011;8809;51.892;8.384;2023-05-07T07:19:47;15.45;;;11.25;;
17382;SDS011;8809;51.892;8.384;2023-05-07T07:22:14;15.20;;;10.90;;
17382;SDS011;8809;51.892;8.384;2023-05-07T07:24:42;15.63;;;11.88;;
17382;SDS011;8809;51.892;8.384;2023-05-07T07:27:11;18.40;;;13.80;;
17382;SDS011;8809;51.892;8.384;2023-05-07T07:29:38;15.68;;;11.15;;
17382;SDS011;8809;51.892;8.384;2023-05-07T07:32:06;14.80;;;11.85;;
17382;SDS011;8809;51.892;8.384;2023-05-07T07:34:34;16.63;;;12.30;;
17382;SDS011;8809;51.892;8.384;2023-05-07T07:37:01;16.42;;;12.93;;
17382;SDS011;8809;51.892;8.384;2023-05-07T07:39:33;13.90;;;11.18;;
17382;SDS011;8809;51.892;8.384;2023-05-07T07:42:00;18.70;;;13.25;;
17382;SDS011;8809;51.892;8.384;2023-05-07T07:44:28;15.02;;;11.27;;
17382;SDS011;8809;51.892;8.384;2023-05-07T07:46:56;13.55;;;10.43;;
17382;SDS011;8809;51.892;8.384;2023-05-07T07:49:23;13.48;;;9.85;;
17382;SDS011;8809;51.892;8.384;2023-05-07T07:51:54;13.07;;;9.65;;
17382;SDS011;8809;51.892;8.384;2023-05-07T07:54:21;14.25;;;10.88;;
17382;SDS011;8809;51.892;8.384;2023-05-07T07:56:48;15.05;;;11.20;;
17382;SDS011;8809;51.892;8.384;2023-05-07T07:59:16;15.45;;;10.80;;
17382;SDS011;8809;51.892;8.384;2023-05-07T08:01:46;14.23;;;11.07;;
17382;SDS011;8809;51.892;8.384;2023-05-07T08:04:16;14.18;;;10.55;;
17382;SDS011;8809;51.892;8.384;2023-05-07T08:06:44;14.20;;;10.90;;
17382;SDS011;8809;51.892;8.384;2023-05-07T08:09:11;11.50;;;9.82;;
17382;SDS011;8809;51.892;8.384;2023-05-07T08:11:38;13.68;;;10.35;;
17382;SDS011;8809;51.892;8.384;2023-05-07T08:14:05;12.98;;;10.13;;
17382;SDS011;8809;51.892;8.384;2023-05-07T08:16:33;12.57;;;9.50;;
17382;SDS011;8809;51.892;8.384;2023-05-07T08:19:01;12.65;;;9.63;;
17382;SDS011;8809;51.892;8.384;2023-05-07T08:21:29;14.63;;;10.85;;
17382;SDS011;8809;51.892;8.384;2023-05-07T08:23:57;13.32;;;10.30;;
17382;SDS011;8809;51.892;8.384;2023-05-07T08:26:23;9.65;;;8.18;;
17382;SDS011;8809;51.892;8.384;2023-05-07T08:28:51;11.40;;;9.63;;
17382;SDS011;8809;51.892;8.384;2023-05-07T08:31:18;9.15;;;7.65;;
17382;SDS011;8809;51.892;8.384;2023-05-07T08:33:45;11.20;;;8.48;;
17382;SDS011;8809;51.892;8.384;2023-05-07T08:36:14;11.10;;;8.57;;
17382;SDS011;8809;51.892;8.384;2023-05-07T08:38:41;11.93;;;9.88;;
17382;SDS011;8809;51.892;8.384;2023-05-07T08:41:10;11.05;;;8.43;;
17382;SDS011;8809;51.892;8.384;2023-05-07T08:43:37;11.38;;;9.07;;
17382;SDS011;8809;51.892;8.384;2023-05-07T08:46:08;9.00;;;7.90;;
17382;SDS011;8809;51.892;8.384;2023-05-07T08:48:36;10.63;;;7.90;;
17382;SDS011;8809;51.892;8.384;2023-05-07T08:51:03;10.57;;;8.00;;
17382;SDS011;8809;51.892;8.384;2023-05-07T08:53:33;9.07;;;7.43;;
17382;SDS011;8809;51.892;8.384;2023-05-07T08:56:00;9.35;;;7.40;;
17382;SDS011;8809;51.892;8.384;2023-05-07T08:58:36;10.93;;;8.25;;
17382;SDS011;8809;51.892;8.384;2023-05-07T09:01:07;8.98;;;8.00;;
17382;SDS011;8809;51.892;8.384;2023-05-07T09:03:36;9.07;;;7.28;;
17382;SDS011;8809;51.892;8.384;2023-05-07T09:06:05;9.45;;;7.50;;
17382;SDS011;8809;51.892;8.384;2023-05-07T09:08:34;9.00;;;7.60;;
17382;SDS011;8809;51.892;8.384;2023-05-07T09:11:02;10.13;;;7.68;;
17382;SDS011;8809;51.892;8.384;2023-05-07T09:13:30;8.93;;;7.40;;
17382;SDS011;8809;51.892;8.384;2023-05-07T09:15:57;9.07;;;7.18;;
17382;SDS011;8809;51.892;8.384;2023-05-07T09:18:24;9.63;;;7.57;;
17382;SDS011;8809;51.892;8.384;2023-05-07T09:20:51;9.35;;;7.00;;
17382;SDS011;8809;51.892;8.384;2023-05-07T09:23:18;9.38;;;7.93;;
17382;SDS011;8809;51.892;8.384;2023-05-07T09:25:48;10.02;;;7.93;;
17382;SDS011;8809;51.892;8.384;2023-05-07T09:28:15;8.32;;;6.93;;
17382;SDS011;8809;51.892;8.384;2023-05-07T09:30:42;9.35;;;7.40;;
17382;SDS011;8809;51.892;8.384;2023-05-07T09:33:09;9.80;;;6.85;;
17382;SDS011;8809;51.892;8.384;2023-05-07T09:35:37;7.80;;;6.72;;
17382;SDS011;8809;51.892;8.384;2023-05-07T09:38:04;7.40;;;6.32;;
17382;SDS011;8809;51.892;8.384;2023-05-07T09:40:32;9.23;;;7.50;;
17382;SDS011;8809;51.892;8.384;2023-05-07T09:43:09;9.00;;;7.13;;
17382;SDS011;8809;51.892;8.384;2023-05-07T09:45:37;9.25;;;7.45;;
17382;SDS011;8809;51.892;8.384;2023-05-07T09:48:05;7.38;;;6.50;;
17382;SDS011;8809;51.892;8.384;2023-05-07T09:50:35;8.05;;;6.95;;
17382;SDS011;8809;51.892;8.384;2023-05-07T09:53:06;7.50;;;6.70;;
17382;SDS011;8809;51.892;8.384;2023-05-07T09:55:36;8.02;;;6.65;;
17382;SDS011;8809;51.892;8.384;2023-05-07T09:58:05;7.95;;;6.70;;
17382;SDS011;8809;51.892;8.384;2023-05-07T10:00:34;10.02;;;8.05;;
17382;SDS011;8809;51.892;8.384;2023-05-07T10:03:03;8.68;;;7.43;;
17382;SDS011;8809;51.892;8.384;2023-05-07T10:05:32;8.80;;;7.40;;
17382;SDS011;8809;51.892;8.384;2023-05-07T10:07:59;8.05;;;7.00;;
17382;SDS011;8809;51.892;8.384;2023-05-07T10:10:27;8.30;;;6.78;;
17382;SDS011;8809;51.892;8.384;2023-05-07T10:12:56;9.18;;;6.60;;
17382;SDS011;8809;51.892;8.384;2023-05-07T10:15:24;8.55;;;7.43;;
17382;SDS011;8809;51.892;8.384;2023-05-07T10:17:53;7.75;;;6.68;;
17382;SDS011;8809;51.892;8.384;2023-05-07T10:20:21;10.57;;;8.40;;
17382;SDS011;8809;51.892;8.384;2023-05-07T10:22:48;10.68;;;8.55;;
17382;SDS011;8809;51.892;8.384;2023-05-07T10:25:18;9.77;;;7.55;;
17382;SDS011;8809;51.892;8.384;2023-05-07T10:27:48;8.38;;;7.43;;
17382;SDS011;8809;51.892;8.384;2023-05-07T10:30:20;9.93;;;7.63;;
17382;SDS011;8809;51.892;8.384;2023-05-07T10:33:02;7.90;;;6.53;;
17382;SDS011;8809;51.892;8.384;2023-05-07T10:35:32;9.23;;;6.45;;
17382;SDS011;8809;51.892;8.384;2023-05-07T10:38:04;7.50;;;6.35;;
17382;SDS011;8809;51.892;8.384;2023-05-07T10:40:32;7.68;;;6.30;;
17382;SDS011;8809;51.892;8.384;2023-05-07T10:43:00;7.50;;;6.22;;
17382;SDS011;8809;51.892;8.384;2023-05-07T10:45:28;7.50;;;6.35;;
17382;SDS011;8809;51.892;8.384;2023-05-07T10:50:45;9.45;;;8.02;;
17382;SDS011;8809;51.892;8.384;2023-05-07T10:53:22;8.88;;;6.35;;
17382;SDS011;8809;51.892;8.384;2023-05-07T10:56:08;7.88;;;6.20;;
17382;SDS011;8809;51.892;8.384;2023-05-07T10:58:55;7.22;;;6.40;;
17382;SDS011;8809;51.892;8.384;2023-05-07T11:04:18;8.07;;;7.07;;
17382;SDS011;8809;51.892;8.384;2023-05-07T11:12:49;7.85;;;6.53;;
17382;SDS011;8809;51.892;8.384;2023-05-07T11:15:33;9.32;;;7.28;;
17382;SDS011;8809;51.892;8.384;2023-05-07T11:18:10;9.52;;;8.07;;
17382;SDS011;8809;51.892;8.384;2023-05-07T11:20:45;10.40;;;7.45;;
17382;SDS011;8809;51.892;8.384;2023-05-07T11:26:29;7.10;;;6.07;;
17382;SDS011;8809;51.892;8.384;2023-05-07T11:28:58;7.85;;;7.05;;
17382;SDS011;8809;51.892;8.384;2023-05-07T11:31:27;7.25;;;6.43;;
17382;SDS011;8809;51.892;8.384;2023-05-07T11:33:55;6.55;;;5.68;;
17382;SDS011;8809;51.892;8.384;2023-05-07T11:36:24;6.88;;;5.93;;
17382;SDS011;8809;51.892;8.384;2023-05-07T11:38:52;7.45;;;6.40;;
17382;SDS011;8809;51.892;8.384;2023-05-07T11:41:20;7.45;;;6.18;;
17382;SDS011;8809;51.892;8.384;2023-05-07T11:43:57;7.80;;;6.38;;
17382;SDS011;8809;51.892;8.384;2023-05-07T11:46:26;5.72;;;5.13;;
17382;SDS011;8809;51.892;8.384;2023-05-07T11:48:54;5.93;;;5.03;;
17382;SDS011;8809;51.892;8.384;2023-05-07T11:51:22;6.35;;;4.82;;
17382;SDS011;8809;51.892;8.384;2023-05-07T11:53:53;6.10;;;4.95;;
17382;SDS011;8809;51.892;8.384;2023-05-07T11:56:20;6.03;;;5.40;;
17382;SDS011;8809;51.892;8.384;2023-05-07T11:58:47;6.05;;;5.43;;
17382;SDS011;8809;51.892;8.384;2023-05-07T12:01:17;5.78;;;5.18;;
17382;SDS011;8809;51.892;8.384;2023-05-07T12:03:45;5.65;;;4.53;;
17382;SDS011;8809;51.892;8.384;2023-05-07T12:06:14;6.22;;;5.22;;
17382;SDS011;8809;51.892;8.384;2023-05-07T12:08:44;5.85;;;5.00;;
17382;SDS011;8809;51.892;8.384;2023-05-07T12:11:13;5.72;;;5.10;;
17382;SDS011;8809;51.892;8.384;2023-05-07T12:13:42;7.15;;;5.82;;
17382;SDS011;8809;51.892;8.384;2023-05-07T12:16:10;5.13;;;4.63;;
17382;SDS011;8809;51.892;8.384;2023-05-07T12:18:38;4.85;;;4.40;;
17382;SDS011;8809;51.892;8.384;2023-05-07T12:21:06;4.97;;;4.47;;
17382;SDS011;8809;51.892;8.384;2023-05-07T12:23:34;4.50;;;4.10;;
17382;SDS011;8809;51.892;8.384;2023-05-07T12:26:04;4.75;;;4.32;;
17382;SDS011;8809;51.892;8.384;2023-05-07T12:28:36;6.15;;;4.47;;
17382;SDS011;8809;51.892;8.384;2023-05-07T12:31:05;5.57;;;4.95;;
17382;SDS011;8809;51.892;8.384;2023-05-07T12:33:33;4.95;;;4.22;;
17382;SDS011;8809;51.892;8.384;2023-05-07T12:36:05;5.18;;;4.60;;
17382;SDS011;8809;51.892;8.384;2023-05-07T12:38:38;4.20;;;3.80;;
17382;SDS011;8809;51.892;8.384;2023-05-07T12:41:07;5.50;;;4.28;;
17382;SDS011;8809;51.892;8.384;2023-05-07T12:43:37;3.90;;;3.60;;
17382;SDS011;8809;51.892;8.384;2023-05-07T12:46:05;4.20;;;3.75;;
17382;SDS011;8809;51.892;8.384;2023-05-07T12:48:35;4.63;;;4.22;;
17382;SDS011;8809;51.892;8.384;2023-05-07T12:51:04;6.88;;;4.40;;
17382;SDS011;8809;51.892;8.384;2023-05-07T12:53:32;4.47;;;4.00;;
17382;SDS011;8809;51.892;8.384;2023-05-07T12:56:02;5.05;;;4.22;;
17382;SDS011;8809;51.892;8.384;2023-05-07T12:58:34;5.22;;;4.13;;
17382;SDS011;8809;51.892;8.384;2023-05-07T13:01:04;4.25;;;3.85;;
17382;SDS011;8809;51.892;8.384;2023-05-07T13:03:34;4.28;;;3.88;;
17382;SDS011;8809;51.892;8.384;2023-05-07T13:06:03;4.70;;;3.90;;
17382;SDS011;8809;51.892;8.384;2023-05-07T13:08:33;5.50;;;4.40;;
17382;SDS011;8809;51.892;8.384;2023-05-07T13:11:07;4.93;;;3.95;;
17382;SDS011;8809;51.892;8.384;2023-05-07T13:13:38;4.47;;;3.65;;
17382;SDS011;8809;51.892;8.384;2023-05-07T13:16:10;4.40;;;4.00;;
17382;SDS011;8809;51.892;8.384;2023-05-07T13:18:38;4.03;;;3.63;;
17382;SDS011;8809;51.892;8.384;2023-05-07T13:21:06;4.80;;;3.38;;
17382;SDS011;8809;51.892;8.384;2023-05-07T13:23:34;4.07;;;3.58;;
17382;SDS011;8809;51.892;8.384;2023-05-07T13:26:03;3.88;;;3.47;;
17382;SDS011;8809;51.892;8.384;2023-05-07T13:28:30;3.72;;;3.33;;
17382;SDS011;8809;51.892;8.384;2023-05-07T13:31:01;3.90;;;3.50;;
17382;SDS011;8809;51.892;8.384;2023-05-07T13:33:28;4.00;;;3.63;;
17382;SDS011;8809;51.892;8.384;2023-05-07T13:35:55;3.40;;;3.10;;
17382;SDS011;8809;51.892;8.384;2023-05-07T13:38:31;3.00;;;2.72;;
17382;SDS011;8809;51.892;8.384;2023-05-07T13:40:58;4.18;;;3.60;;
17382;SDS011;8809;51.892;8.384;2023-05-07T13:43:26;3.63;;;2.80;;
17382;SDS011;8809;51.892;8.384;2023-05-07T13:45:53;3.60;;;3.30;;
17382;SDS011;8809;51.892;8.384;2023-05-07T13:48:31;3.50;;;3.20;;
17382;SDS011;8809;51.892;8.384;2023-05-07T13:50:59;3.53;;;2.70;;
17382;SDS011;8809;51.892;8.384;2023-05-07T13:53:26;3.40;;;3.10;;
17382;SDS011;8809;51.892;8.384;2023-05-07T13:55:53;3.05;;;2.75;;
17382;SDS011;8809;51.892;8.384;2023-05-07T13:58:20;2.80;;;2.60;;
17382;SDS011;8809;51.892;8.384;2023-05-07T14:00:50;3.40;;;3.10;;
17382;SDS011;8809;51.892;8.384;2023-05-07T14:03:18;3.92;;;2.70;;
17382;SDS011;8809;51.892;8.384;2023-05-07T14:05:47;3.05;;;2.65;;
17382;SDS011;8809;51.892;8.384;2023-05-07T14:08:14;3.58;;;3.17;;
17382;SDS011;8809;51.892;8.384;2023-05-07T14:10:43;2.58;;;2.33;;
17382;SDS011;8809;51.892;8.384;2023-05-07T14:13:10;3.10;;;2.40;;
17382;SDS011;8809;51.892;8.384;2023-05-07T14:15:37;3.85;;;3.50;;
17382;SDS011;8809;51.892;8.384;2023-05-07T14:18:06;2.92;;;2.60;;
17382;SDS011;8809;51.892;8.384;2023-05-07T14:20:33;3.25;;;2.95;;
17382;SDS011;8809;51.892;8.384;2023-05-07T14:23:04;3.05;;;2.75;;
17382;SDS011;8809;51.892;8.384;2023-05-07T14:25:33;2.80;;;2.60;;
17382;SDS011;8809;51.892;8.384;2023-05-07T14:28:00;3.15;;;2.65;;
17382;SDS011;8809;51.892;8.384;2023-05-07T14:30:27;3.30;;;3.00;;
17382;SDS011;8809;51.892;8.384;2023-05-07T14:32:54;4.63;;;3.50;;
17382;SDS011;8809;51.892;8.384;2023-05-07T14:35:21;4.05;;;2.92;;
17382;SDS011;8809;51.892;8.384;2023-05-07T14:37:49;3.22;;;2.92;;
17382;SDS011;8809;51.892;8.384;2023-05-07T14:40:17;3.78;;;3.10;;
17382;SDS011;8809;51.892;8.384;2023-05-07T14:42:47;3.85;;;3.40;;
17382;SDS011;8809;51.892;8.384;2023-05-07T14:45:15;3.53;;;3.22;;
17382;SDS011;8809;51.892;8.384;2023-05-07T14:47:45;3.53;;;3.08;;
17382;SDS011;8809;51.892;8.384;2023-05-07T14:50:18;4.28;;;3.47;;
17382;SDS011;8809;51.892;8.384;2023-05-07T14:52:46;5.20;;;3.72;;
17382;SDS011;8809;51.892;8.384;2023-05-07T14:55:14;7.78;;;6.40;;
17382;SDS011;8809;51.892;8.384;2023-05-07T14:57:42;21.83;;;14.43;;
17382;SDS011;8809;51.892;8.384;2023-05-07T15:00:10;13.85;;;10.27;;
17382;SDS011;8809;51.892;8.384;2023-05-07T15:02:39;14.38;;;10.65;;
17382;SDS011;8809;51.892;8.384;2023-05-07T15:05:08;11.38;;;8.20;;
17382;SDS011;8809;51.892;8.384;2023-05-07T15:07:35;7.35;;;6.50;;
17382;SDS011;8809;51.892;8.384;2023-05-07T15:12:35;9.43;;;8.07;;
17382;SDS011;8809;51.892;8.384;2023-05-07T15:15:07;9.60;;;7.20;;
17382;SDS011;8809;51.892;8.384;2023-05-07T15:17:36;8.93;;;6.97;;